sensor_id;sensor_type;location;lat;lon;timestamp;pressure;altitude;pressure_sealevel;temperature;humidity
75221;BME280;63802;53.232;6.570;2024-02-21T00:00:57;101920.56;;;8.87;100.00
75221;BME280;63802;53.232;6.570;2024-02-21T00:03:22;101928.69;;;8.95;100.00
75221;BME280;63802;53.232;6.570;2024-02-21T00:05:47;101926.13;;;8.90;100.00
75221;BME280;63802;53.232;6.570;2024-02-21T00:08:13;101917.19;;;8.81;100.00
75221;BME280;63802;53.232;6.570;2024-02-21T00:10:38;101919.78;;;8.77;100.00
75221;BME280;63802;53.232;6.570;2024-02-21T00:13:04;101893.53;;;8.73;100.00
75221;BME280;63802;53.232;6.570;2024-02-21T00:15:29;101890.50;;;8.66;100.00
75221;BME280;63802;53.232;6.570;2024-02-21T00:17:54;101892.25;;;8.62;100.00
75221;BME280;63802;53.232;6.570;2024-02-21T00:20:20;101883.00;;;8.63;100.00
75221;BME280;63802;53.232;6.570;2024-02-21T00:22:45;101871.63;;;8.61;100.00
75221;BME280;63802;53.232;6.570;2024-02-21T00:25:11;101858.81;;;8.61;100.00
75221;BME280;63802;53.232;6.570;2024-02-21T00:27:37;101838.84;;;8.49;100.00
75221;BME280;63802;53.232;6.570;2024-02-21T00:30:03;101863.63;;;8.56;100.00
75221;BME280;63802;53.232;6.570;2024-02-21T00:32:28;101835.50;;;8.43;100.00
75221;BME280;63802;53.232;6.570;2024-02-21T00:34:54;101855.66;;;8.51;100.00
75221;BME280;63802;53.232;6.570;2024-02-21T00:37:19;101824.13;;;8.41;100.00
75221;BME280;63802;53.232;6.570;2024-02-21T00:39:45;101817.72;;;8.46;100.00
75221;BME280;63802;53.232;6.570;2024-02-21T00:42:10;101809.75;;;8.41;100.00
75221;BME280;63802;53.232;6.570;2024-02-21T00:44:35;101818.84;;;8.45;100.00
75221;BME280;63802;53.232;6.570;2024-02-21T00:47:01;101803.66;;;8.44;100.00
75221;BME280;63802;53.232;6.570;2024-02-21T00:49:26;101795.03;;;8.42;100.00
75221;BME280;63802;53.232;6.570;2024-02-21T00:51:52;101798.38;;;8.39;100.00
75221;BME280;63802;53.232;6.570;2024-02-21T00:54:17;101794.72;;;8.35;100.00
75221;BME280;63802;53.232;6.570;2024-02-21T00:56:43;101790.41;;;8.34;100.00
75221;BME280;63802;53.232;6.570;2024-02-21T00:59:09;101795.19;;;8.37;100.00
75221;BME280;63802;53.232;6.570;2024-02-21T01:01:34;101801.75;;;8.36;100.00
75221;BME280;63802;53.232;6.570;2024-02-21T01:03:59;101793.91;;;8.34;100.00
75221;BME280;63802;53.232;6.570;2024-02-21T01:06:25;101795.84;;;8.34;100.00
75221;BME280;63802;53.232;6.570;2024-02-21T01:08:51;101790.88;;;8.36;100.00
75221;BME280;63802;53.232;6.570;2024-02-21T01:11:16;101792.47;;;8.37;100.00
75221;BME280;63802;53.232;6.570;2024-02-21T01:13:42;101772.34;;;8.29;100.00
75221;BME280;63802;53.232;6.570;2024-02-21T01:16:08;101792.47;;;8.37;100.00
75221;BME280;63802;53.232;6.570;2024-02-21T01:18:34;101786.06;;;8.33;100.00
75221;BME280;63802;53.232;6.570;2024-02-21T01:20:59;101785.59;;;8.39;100.00
75221;BME280;63802;53.232;6.570;2024-02-21T01:23:25;101791.81;;;8.40;100.00
75221;BME280;63802;53.232;6.570;2024-02-21T01:25:51;101766.22;;;8.24;100.00
75221;BME280;63802;53.232;6.570;2024-02-21T01:28:18;101788.16;;;8.36;100.00
75221;BME280;63802;53.232;6.570;2024-02-21T01:30:43;101782.41;;;8.37;100.00
75221;BME280;63802;53.232;6.570;2024-02-21T01:33:08;101777.91;;;8.33;100.00
75221;BME280;63802;53.232;6.570;2024-02-21T01:35:35;101772.00;;;8.31;100.00
75221;BME280;63802;53.232;6.570;2024-02-21T01:38:03;101769.41;;;8.26;100.00
75221;BME280;63802;53.232;6.570;2024-02-21T01:40:29;101785.59;;;8.31;100.00
75221;BME280;63802;53.232;6.570;2024-02-21T01:42:55;101776.50;;;8.27;100.00
75221;BME280;63802;53.232;6.570;2024-02-21T01:45:21;101769.41;;;8.26;100.00
75221;BME280;63802;53.232;6.570;2024-02-21T01:47:48;101762.56;;;8.28;100.00
75221;BME280;63802;53.232;6.570;2024-02-21T01:50:14;101774.59;;;8.27;100.00
75221;BME280;63802;53.232;6.570;2024-02-21T01:52:40;101761.59;;;8.24;100.00
75221;BME280;63802;53.232;6.570;2024-02-21T01:55:06;101761.00;;;8.27;100.00
75221;BME280;63802;53.232;6.570;2024-02-21T01:57:33;101760.66;;;8.29;100.00
75221;BME280;63802;53.232;6.570;2024-02-21T01:59:58;101754.75;;;8.27;100.00
75221;BME280;63802;53.232;6.570;2024-02-21T02:02:24;101760.78;;;8.24;100.00
75221;BME280;63802;53.232;6.570;2024-02-21T02:04:50;101767.84;;;8.25;100.00
75221;BME280;63802;53.232;6.570;2024-02-21T02:07:15;101753.78;;;8.23;100.00
75221;BME280;63802;53.232;6.570;2024-02-21T02:09:41;101752.34;;;8.25;100.00
75221;BME280;63802;53.232;6.570;2024-02-21T02:12:07;101740.81;;;8.20;100.00
75221;BME280;63802;53.232;6.570;2024-02-21T02:14:33;101746.59;;;8.27;100.00
75221;BME280;63802;53.232;6.570;2024-02-21T02:16:58;101731.53;;;8.21;100.00
75221;BME280;63802;53.232;6.570;2024-02-21T02:19:23;101736.78;;;8.26;100.00
75221;BME280;63802;53.232;6.570;2024-02-21T02:21:56;101734.41;;;8.24;100.00
75221;BME280;63802;53.232;6.570;2024-02-21T02:24:24;101743.06;;;8.26;100.00
75221;BME280;63802;53.232;6.570;2024-02-21T02:26:52;101738.44;;;8.27;100.00
75221;BME280;63802;53.232;6.570;2024-02-21T02:29:18;101739.69;;;8.21;100.00
75221;BME280;63802;53.232;6.570;2024-02-21T02:31:44;101743.06;;;8.26;100.00
75221;BME280;63802;53.232;6.570;2024-02-21T02:34:09;101740.34;;;8.26;100.00
75221;BME280;63802;53.232;6.570;2024-02-21T02:36:35;101736.19;;;8.29;100.00
75221;BME280;63802;53.232;6.570;2024-02-21T02:39:00;101711.38;;;8.22;100.00
75221;BME280;63802;53.232;6.570;2024-02-21T02:41:26;101717.47;;;8.27;100.00
75221;BME280;63802;53.232;6.570;2024-02-21T02:43:52;101709.59;;;8.26;100.00
75221;BME280;63802;53.232;6.570;2024-02-21T02:46:17;101713.97;;;8.27;100.00
75221;BME280;63802;53.232;6.570;2024-02-21T02:48:42;101705.81;;;8.27;100.00
75221;BME280;63802;53.232;6.570;2024-02-21T02:51:08;101704.69;;;8.28;100.00
75221;BME280;63802;53.232;6.570;2024-02-21T02:53:33;101694.44;;;8.25;100.00
75221;BME280;63802;53.232;6.570;2024-02-21T02:55:58;101690.56;;;8.26;100.00
75221;BME280;63802;53.232;6.570;2024-02-21T02:58:24;101681.94;;;8.24;100.00
75221;BME280;63802;53.232;6.570;2024-02-21T03:00:49;101675.38;;;8.25;100.00
75221;BME280;63802;53.232;6.570;2024-02-21T03:03:14;101695.38;;;8.29;100.00
75221;BME280;63802;53.232;6.570;2024-02-21T03:05:40;101690.09;;;8.24;100.00
75221;BME280;63802;53.232;6.570;2024-02-21T03:08:06;101696.00;;;8.26;100.00
75221;BME280;63802;53.232;6.570;2024-02-21T03:10:35;101687.84;;;8.26;100.00
75221;BME280;63802;53.232;6.570;2024-02-21T03:13:00;101684.03;;;8.27;100.00
75221;BME280;63802;53.232;6.570;2024-02-21T03:15:26;101688.69;;;8.26;100.00
75221;BME280;63802;53.232;6.570;2024-02-21T03:17:52;101691.72;;;8.25;100.00
75221;BME280;63802;53.232;6.570;2024-02-21T03:20:17;101680.84;;;8.25;100.00
75221;BME280;63802;53.232;6.570;2024-02-21T03:22:44;101671.25;;;8.19;100.00
75221;BME280;63802;53.232;6.570;2024-02-21T03:25:10;101687.22;;;8.29;100.00
75221;BME280;63802;53.232;6.570;2024-02-21T03:27:35;101679.22;;;8.24;100.00
75221;BME280;63802;53.232;6.570;2024-02-21T03:30:01;101676.97;;;8.26;100.00
75221;BME280;63802;53.232;6.570;2024-02-21T03:32:27;101681.47;;;8.22;100.00
75221;BME280;63802;53.232;6.570;2024-02-21T03:34:54;101685.66;;;8.28;100.00
75221;BME280;63802;53.232;6.570;2024-02-21T03:37:20;101687.84;;;8.26;100.00
75221;BME280;63802;53.232;6.570;2024-02-21T03:39:45;101683.09;;;8.23;100.00
75221;BME280;63802;53.232;6.570;2024-02-21T03:42:11;101686.28;;;8.25;100.00
75221;BME280;63802;53.232;6.570;2024-02-21T03:44:36;101682.41;;;8.26;100.00
75221;BME280;63802;53.232;6.570;2024-02-21T03:47:02;101678.91;;;8.25;100.00
75221;BME280;63802;53.232;6.570;2024-02-21T03:49:27;101680.84;;;8.25;100.00
75221;BME280;63802;53.232;6.570;2024-02-21T03:51:53;101674.78;;;8.28;100.00
75221;BME280;63802;53.232;6.570;2024-02-21T03:54:18;101677.97;;;8.30;100.00
75221;BME280;63802;53.232;6.570;2024-02-21T03:56:44;101685.66;;;8.28;100.00
75221;BME280;63802;53.232;6.570;2024-02-21T03:59:10;101664.50;;;8.25;100.00
75221;BME280;63802;53.232;6.570;2024-02-21T04:01:35;101655.56;;;8.24;100.00
75221;BME280;63802;53.232;6.570;2024-02-21T04:04:01;101656.06;;;8.26;100.00
75221;BME280;63802;53.232;6.570;2024-02-21T04:06:27;101650.63;;;8.26;100.00
75221;BME280;63802;53.232;6.570;2024-02-21T04:08:52;101660.03;;;8.29;100.00
75221;BME280;63802;53.232;6.570;2024-02-21T04:11:18;101665.00;;;8.27;100.00
75221;BME280;63802;53.232;6.570;2024-02-21T04:13:44;101655.75;;;8.28;100.00
75221;BME280;63802;53.232;6.570;2024-02-21T04:16:10;101655.75;;;8.28;100.00
75221;BME280;63802;53.232;6.570;2024-02-21T04:18:35;101660.03;;;8.29;100.00
75221;BME280;63802;53.232;6.570;2024-02-21T04:21:01;101662.28;;;8.27;100.00
75221;BME280;63802;53.232;6.570;2024-02-21T04:23:26;101660.53;;;8.22;100.00
75221;BME280;63802;53.232;6.570;2024-02-21T04:25:52;101659.88;;;8.25;100.00
75221;BME280;63802;53.232;6.570;2024-02-21T04:28:17;101660.66;;;8.26;100.00
75221;BME280;63802;53.232;6.570;2024-02-21T04:30:43;101660.66;;;8.26;100.00
75221;BME280;63802;53.232;6.570;2024-02-21T04:33:08;101660.66;;;8.26;100.00
75221;BME280;63802;53.232;6.570;2024-02-21T04:35:35;101664.22;;;8.26;100.00
75221;BME280;63802;53.232;6.570;2024-02-21T04:38:01;101660.66;;;8.26;100.00
75221;BME280;63802;53.232;6.570;2024-02-21T04:40:26;101651.56;;;8.22;100.00
75221;BME280;63802;53.232;6.570;2024-02-21T04:42:52;101658.47;;;8.28;100.00
75221;BME280;63802;53.232;6.570;2024-02-21T04:45:17;101649.78;;;8.26;100.00
75221;BME280;63802;53.232;6.570;2024-02-21T04:47:43;101649.00;;;8.25;100.00
75221;BME280;63802;53.232;6.570;2024-02-21T04:50:08;101642.75;;;8.25;100.00
75221;BME280;63802;53.232;6.570;2024-02-21T04:52:34;101642.16;;;8.28;100.00
75221;BME280;63802;53.232;6.570;2024-02-21T04:54:59;101635.09;;;8.27;100.00
75221;BME280;63802;53.232;6.570;2024-02-21T04:57:24;101636.72;;;8.28;100.00
75221;BME280;63802;53.232;6.570;2024-02-21T04:59:50;101617.34;;;8.21;100.00
75221;BME280;63802;53.232;6.570;2024-02-21T05:02:16;101625.50;;;8.21;100.00
75221;BME280;63802;53.232;6.570;2024-02-21T05:04:45;101626.44;;;8.25;100.00
75221;BME280;63802;53.232;6.570;2024-02-21T05:07:10;101627.09;;;8.22;100.00
75221;BME280;63802;53.232;6.570;2024-02-21T05:09:37;101620.06;;;8.21;100.00
75221;BME280;63802;53.232;6.570;2024-02-21T05:12:02;101622.94;;;8.24;100.00
75221;BME280;63802;53.232;6.570;2024-02-21T05:14:28;101604.41;;;8.18;100.00
75221;BME280;63802;53.232;6.570;2024-02-21T05:16:53;101614.31;;;8.22;100.00
75221;BME280;63802;53.232;6.570;2024-02-21T05:19:19;101622.59;;;8.26;100.00
75221;BME280;63802;53.232;6.570;2024-02-21T05:21:44;101617.16;;;8.26;100.00
75221;BME280;63802;53.232;6.570;2024-02-21T05:24:10;101604.22;;;8.23;100.00
75221;BME280;63802;53.232;6.570;2024-02-21T05:26:35;101610.13;;;8.25;100.00
75221;BME280;63802;53.232;6.570;2024-02-21T05:29:01;101611.59;;;8.22;100.00
75221;BME280;63802;53.232;6.570;2024-02-21T05:31:43;101610.78;;;8.22;100.00
75221;BME280;63802;53.232;6.570;2024-02-21T05:34:20;101623.41;;;8.26;100.00
75221;BME280;63802;53.232;6.570;2024-02-21T05:36:46;101619.41;;;8.24;100.00
75221;BME280;63802;53.232;6.570;2024-02-21T05:39:14;101618.78;;;8.27;100.00
75221;BME280;63802;53.232;6.570;2024-02-21T05:41:40;101603.94;;;8.16;100.00
75221;BME280;63802;53.232;6.570;2024-02-21T05:44:05;101609.66;;;8.23;100.00
75221;BME280;63802;53.232;6.570;2024-02-21T05:46:31;101608.53;;;8.24;100.00
75221;BME280;63802;53.232;6.570;2024-02-21T05:48:57;101606.16;;;8.22;100.00
75221;BME280;63802;53.232;6.570;2024-02-21T05:51:22;101590.47;;;8.19;100.00
75221;BME280;63802;53.232;6.570;2024-02-21T05:53:48;101596.06;;;8.23;100.00
75221;BME280;63802;53.232;6.570;2024-02-21T05:56:16;101598.94;;;8.26;100.00
75221;BME280;63802;53.232;6.570;2024-02-21T05:58:43;101595.75;;;8.24;100.00
75221;BME280;63802;53.232;6.570;2024-02-21T06:01:09;101576.28;;;8.13;100.00
75221;BME280;63802;53.232;6.570;2024-02-21T06:03:35;101578.81;;;8.19;100.00
75221;BME280;63802;53.232;6.570;2024-02-21T06:06:01;101580.25;;;8.16;100.00
75221;BME280;63802;53.232;6.570;2024-02-21T06:08:27;101575.63;;;8.17;100.00
75221;BME280;63802;53.232;6.570;2024-02-21T06:10:53;101581.34;;;8.24;100.00
75221;BME280;63802;53.232;6.570;2024-02-21T06:13:26;101570.19;;;8.17;100.00
75221;BME280;63802;53.232;6.570;2024-02-21T06:15:52;101574.97;;;8.20;100.00
75221;BME280;63802;53.232;6.570;2024-02-21T06:18:18;101576.56;;;8.21;100.00
75221;BME280;63802;53.232;6.570;2024-02-21T06:20:44;101573.25;;;8.15;100.00
75221;BME280;63802;53.232;6.570;2024-02-21T06:23:10;101575.31;;;8.18;100.00
75221;BME280;63802;53.232;6.570;2024-02-21T06:25:36;101574.16;;;8.19;100.00
75221;BME280;63802;53.232;6.570;2024-02-21T06:28:02;101573.53;;;8.22;100.00
75221;BME280;63802;53.232;6.570;2024-02-21T06:30:27;101556.75;;;8.20;100.00
75221;BME280;63802;53.232;6.570;2024-02-21T06:32:53;101552.28;;;8.16;100.00
75221;BME280;63802;53.232;6.570;2024-02-21T06:35:21;101560.91;;;8.18;100.00
75221;BME280;63802;53.232;6.570;2024-02-21T06:37:50;101568.59;;;8.16;100.00
75221;BME280;63802;53.232;6.570;2024-02-21T06:40:21;101560.91;;;8.18;100.00
75221;BME280;63802;53.232;6.570;2024-02-21T06:42:48;101560.63;;;8.10;100.00
75221;BME280;63802;53.232;6.570;2024-02-21T06:45:15;101567.47;;;8.17;100.00
75221;BME280;63802;53.232;6.570;2024-02-21T06:47:41;101557.91;;;8.10;100.00
75221;BME280;63802;53.232;6.570;2024-02-21T06:50:07;101562.22;;;8.11;100.00
75221;BME280;63802;53.232;6.570;2024-02-21T06:52:34;101569.88;;;8.18;100.00
75221;BME280;63802;53.232;6.570;2024-02-21T06:55:00;101574.50;;;8.18;100.00
75221;BME280;63802;53.232;6.570;2024-02-21T06:57:26;101544.03;;;8.03;100.00
75221;BME280;63802;53.232;6.570;2024-02-21T06:59:51;101548.16;;;8.09;100.00
75221;BME280;63802;53.232;6.570;2024-02-21T07:02:17;101563.16;;;8.16;100.00
75221;BME280;63802;53.232;6.570;2024-02-21T07:04:42;101562.38;;;8.15;100.00
75221;BME280;63802;53.232;6.570;2024-02-21T07:07:11;101554.53;;;8.13;100.00
75221;BME280;63802;53.232;6.570;2024-02-21T07:09:38;101554.34;;;8.19;100.00
75221;BME280;63802;53.232;6.570;2024-02-21T07:12:04;101551.03;;;8.13;100.00
75221;BME280;63802;53.232;6.570;2024-02-21T07:14:32;101553.88;;;8.17;100.00
75221;BME280;63802;53.232;6.570;2024-02-21T07:17:01;101557.06;;;8.19;100.00
75221;BME280;63802;53.232;6.570;2024-02-21T07:19:27;101558.66;;;8.20;100.00
75221;BME280;63802;53.232;6.570;2024-02-21T07:21:53;101547.63;;;8.16;100.00
75221;BME280;63802;53.232;6.570;2024-02-21T07:24:19;101550.97;;;8.22;100.00
75221;BME280;63802;53.232;6.570;2024-02-21T07:26:45;101549.38;;;8.21;100.00
75221;BME280;63802;53.232;6.570;2024-02-21T07:29:11;101545.53;;;8.22;100.00
75221;BME280;63802;53.232;6.570;2024-02-21T07:31:43;101532.13;;;8.17;100.00
75221;BME280;63802;53.232;6.570;2024-02-21T07:34:09;101536.91;;;8.20;100.00
75221;BME280;63802;53.232;6.570;2024-02-21T07:36:35;101536.25;;;8.23;100.00
75221;BME280;63802;53.232;6.570;2024-02-21T07:39:04;101537.03;;;8.23;100.00
75221;BME280;63802;53.232;6.570;2024-02-21T07:41:30;101532.75;;;8.22;100.00
75221;BME280;63802;53.232;6.570;2024-02-21T07:43:55;101530.81;;;8.23;100.00
75221;BME280;63802;53.232;6.570;2024-02-21T07:46:21;101523.13;;;8.25;100.00
75221;BME280;63802;53.232;6.570;2024-02-21T07:48:47;101511.47;;;8.24;100.00
75221;BME280;63802;53.232;6.570;2024-02-21T07:51:12;101510.50;;;8.29;100.00
75221;BME280;63802;53.232;6.570;2024-02-21T07:53:41;101513.22;;;8.29;100.00
75221;BME280;63802;53.232;6.570;2024-02-21T07:56:14;101506.31;;;8.31;100.00
75221;BME280;63802;53.232;6.570;2024-02-21T07:58:41;101495.63;;;8.26;100.00
75221;BME280;63802;53.232;6.570;2024-02-21T08:01:06;101491.47;;;8.29;100.00
75221;BME280;63802;53.232;6.570;2024-02-21T08:03:32;101503.41;;;8.36;100.00
75221;BME280;63802;53.232;6.570;2024-02-21T08:05:57;101495.59;;;8.35;100.00
75221;BME280;63802;53.232;6.570;2024-02-21T08:08:23;101504.66;;;8.39;100.00
75221;BME280;63802;53.232;6.570;2024-02-21T08:10:51;101506.59;;;8.38;100.00
75221;BME280;63802;53.232;6.570;2024-02-21T08:13:17;101503.88;;;8.38;100.00
75221;BME280;63802;53.232;6.570;2024-02-21T08:15:45;101505.00;;;8.37;100.00
75221;BME280;63802;53.232;6.570;2024-02-21T08:18:10;101493.19;;;8.33;100.00
75221;BME280;63802;53.232;6.570;2024-02-21T08:20:36;101484.56;;;8.31;100.00
75221;BME280;63802;53.232;6.570;2024-02-21T08:23:04;101494.13;;;8.37;100.00
75221;BME280;63802;53.232;6.570;2024-02-21T08:25:30;101496.50;;;8.39;100.00
75221;BME280;63802;53.232;6.570;2024-02-21T08:27:57;101483.91;;;8.34;100.00
75221;BME280;63802;53.232;6.570;2024-02-21T08:30:23;101478.59;;;8.38;100.00
75221;BME280;63802;53.232;6.570;2024-02-21T08:32:48;101471.56;;;8.37;100.00
75221;BME280;63802;53.232;6.570;2024-02-21T08:35:14;101462.28;;;8.38;100.00
75221;BME280;63802;53.232;6.570;2024-02-21T08:37:39;101467.41;;;8.39;100.00
75221;BME280;63802;53.232;6.570;2024-02-21T08:40:05;101480.47;;;8.46;100.00
75221;BME280;63802;53.232;6.570;2024-02-21T08:42:35;101467.22;;;8.44;100.00
75221;BME280;63802;53.232;6.570;2024-02-21T08:45:04;101464.16;;;8.46;100.00
75221;BME280;63802;53.232;6.570;2024-02-21T08:47:30;101454.38;;;8.45;100.00
75221;BME280;63802;53.232;6.570;2024-02-21T08:49:56;101444.66;;;8.44;100.00
75221;BME280;63802;53.232;6.570;2024-02-21T08:52:21;101456.78;;;8.46;100.00
75221;BME280;63802;53.232;6.570;2024-02-21T08:54:47;101464.16;;;8.46;100.00
75221;BME280;63802;53.232;6.570;2024-02-21T08:57:12;101466.22;;;8.49;100.00
75221;BME280;63802;53.232;6.570;2024-02-21T08:59:39;101456.44;;;8.48;100.00
75221;BME280;63802;53.232;6.570;2024-02-21T09:02:05;101446.72;;;8.47;100.00
75221;BME280;63802;53.232;6.570;2024-02-21T09:04:32;101444.44;;;8.49;100.00
75221;BME280;63802;53.232;6.570;2024-02-21T09:06:58;101436.94;;;8.46;100.00
75221;BME280;63802;53.232;6.570;2024-02-21T09:09:23;101439.47;;;8.51;100.00
75221;BME280;63802;53.232;6.570;2024-02-21T09:11:49;101439.00;;;8.49;100.00
75221;BME280;63802;53.232;6.570;2024-02-21T09:14:14;101445.56;;;8.48;100.00
75221;BME280;63802;53.232;6.570;2024-02-21T09:16:40;101449.19;;;8.52;100.00
75221;BME280;63802;53.232;6.570;2024-02-21T09:19:06;101445.56;;;8.48;100.00
75221;BME280;63802;53.232;6.570;2024-02-21T09:21:32;101451.91;;;8.52;100.00
75221;BME280;63802;53.232;6.570;2024-02-21T09:23:57;101448.47;;;8.43;100.00
75221;BME280;63802;53.232;6.570;2024-02-21T09:26:23;101448.75;;;8.50;100.00
75221;BME280;63802;53.232;6.570;2024-02-21T09:28:48;101457.34;;;8.52;100.00
75221;BME280;63802;53.232;6.570;2024-02-21T09:31:14;101457.34;;;8.52;100.00
75221;BME280;63802;53.232;6.570;2024-02-21T09:33:39;101457.03;;;8.53;100.00
75221;BME280;63802;53.232;6.570;2024-02-21T09:36:05;101456.38;;;8.56;100.00
75221;BME280;63802;53.232;6.570;2024-02-21T09:38:31;101457.97;;;8.57;100.00
75221;BME280;63802;53.232;6.570;2024-02-21T09:43:34;101459.69;;;8.62;100.00
75221;BME280;63802;53.232;6.570;2024-02-21T09:46:03;101460.81;;;8.61;100.00
75221;BME280;63802;53.232;6.570;2024-02-21T09:48:42;101458.31;;;8.56;100.00
75221;BME280;63802;53.232;6.570;2024-02-21T09:51:14;101456.03;;;8.58;100.00
75221;BME280;63802;53.232;6.570;2024-02-21T09:53:40;101443.09;;;8.55;100.00
75221;BME280;63802;53.232;6.570;2024-02-21T09:56:10;101458.31;;;8.56;100.00
75221;BME280;63802;53.232;6.570;2024-02-21T09:58:36;101440.72;;;8.53;100.00
75221;BME280;63802;53.232;6.570;2024-02-21T10:01:02;101432.69;;;8.57;100.00
75221;BME280;63802;53.232;6.570;2024-02-21T10:03:32;101439.72;;;8.58;100.00
75221;BME280;63802;53.232;6.570;2024-02-21T10:05:58;101421.13;;;8.60;100.00
75221;BME280;63802;53.232;6.570;2024-02-21T10:08:28;101422.75;;;8.61;100.00
75221;BME280;63802;53.232;6.570;2024-02-21T10:10:54;101433.72;;;8.64;100.00
75221;BME280;63802;53.232;6.570;2024-02-21T10:13:28;101427.38;;;8.60;100.00
75221;BME280;63802;53.232;6.570;2024-02-21T10:16:01;101426.50;;;8.68;100.00
75221;BME280;63802;53.232;6.570;2024-02-21T10:18:28;101429.81;;;8.74;100.00
75221;BME280;63802;53.232;6.570;2024-02-21T10:21:07;101432.78;;;8.81;100.00
75221;BME280;63802;53.232;6.570;2024-02-21T10:23:46;101417.13;;;8.78;100.00
75221;BME280;63802;53.232;6.570;2024-02-21T10:26:12;101420.97;;;8.77;100.00
75221;BME280;63802;53.232;6.570;2024-02-21T10:28:38;101411.41;;;8.71;100.00
75221;BME280;63802;53.232;6.570;2024-02-21T10:31:30;101412.34;;;8.75;100.00
75221;BME280;63802;53.232;6.570;2024-02-21T10:33:59;101413.69;;;8.69;100.00
75221;BME280;63802;53.232;6.570;2024-02-21T10:36:28;101406.66;;;8.68;100.00
75221;BME280;63802;53.232;6.570;2024-02-21T10:38:54;101411.41;;;8.71;100.00
75221;BME280;63802;53.232;6.570;2024-02-21T10:41:21;101408.03;;;8.74;100.00
75221;BME280;63802;53.232;6.570;2024-02-21T10:43:50;101407.13;;;8.70;100.00
75221;BME280;63802;53.232;6.570;2024-02-21T10:46:18;101406.91;;;8.75;100.00
75221;BME280;63802;53.232;6.570;2024-02-21T10:48:45;101399.88;;;8.74;100.00
75221;BME280;63802;53.232;6.570;2024-02-21T10:51:18;101398.41;;;8.76;100.00
75221;BME280;63802;53.232;6.570;2024-02-21T10:53:50;101389.94;;;8.78;100.00
75221;BME280;63802;53.232;6.570;2024-02-21T10:56:34;101402.63;;;8.86;100.00
75221;BME280;63802;53.232;6.570;2024-02-21T10:59:03;101401.16;;;8.89;100.00
75221;BME280;63802;53.232;6.570;2024-02-21T11:01:29;101392.78;;;8.94;100.00
75221;BME280;63802;53.232;6.570;2024-02-21T11:03:58;101383.38;;;9.03;100.00
75221;BME280;63802;53.232;6.570;2024-02-21T11:06:26;101385.56;;;9.22;100.00
75221;BME280;63802;53.232;6.570;2024-02-21T11:11:27;101380.47;;;9.44;100.00
75221;BME280;63802;53.232;6.570;2024-02-21T11:13:52;101383.28;;;9.48;100.00
75221;BME280;63802;53.232;6.570;2024-02-21T11:16:22;101376.59;;;9.45;100.00
75221;BME280;63802;53.232;6.570;2024-02-21T11:18:48;101374.13;;;9.40;100.00
75221;BME280;63802;53.232;6.570;2024-02-21T11:21:14;101365.69;;;9.45;100.00
75221;BME280;63802;53.232;6.570;2024-02-21T11:23:39;101370.16;;;9.50;100.00
75221;BME280;63802;53.232;6.570;2024-02-21T11:26:09;101377.06;;;9.60;100.00
75221;BME280;63802;53.232;6.570;2024-02-21T11:28:35;101375.69;;;9.54;100.00
75221;BME280;63802;53.232;6.570;2024-02-21T11:31:11;101362.66;;;9.47;100.00
75221;BME280;63802;53.232;6.570;2024-02-21T11:33:41;101355.72;;;9.50;100.00
75221;BME280;63802;53.232;6.570;2024-02-21T11:36:08;101347.56;;;9.50;100.00
75221;BME280;63802;53.232;6.570;2024-02-21T11:38:33;101346.19;;;9.43;100.00
75221;BME280;63802;53.232;6.570;2024-02-21T11:40:59;101343.34;;;9.52;100.00
75221;BME280;63802;53.232;6.570;2024-02-21T11:43:24;101341.66;;;9.48;100.00
75221;BME280;63802;53.232;6.570;2024-02-21T11:45:57;101326.66;;;9.41;100.00
75221;BME280;63802;53.232;6.570;2024-02-21T11:48:24;101329.53;;;9.33;100.00
75221;BME280;63802;53.232;6.570;2024-02-21T11:50:54;101310.69;;;9.28;100.00
75221;BME280;63802;53.232;6.570;2024-02-21T11:53:20;101304.09;;;9.29;100.00
75221;BME280;63802;53.232;6.570;2024-02-21T11:55:46;101310.09;;;9.34;100.00
75221;BME280;63802;53.232;6.570;2024-02-21T11:58:12;101302.16;;;9.29;100.00
75221;BME280;63802;53.232;6.570;2024-02-21T12:00:37;101283.47;;;9.28;100.00
75221;BME280;63802;53.232;6.570;2024-02-21T12:03:04;101280.50;;;9.33;100.00
75221;BME280;63802;53.232;6.570;2024-02-21T12:05:31;101258.38;;;9.22;100.00
75221;BME280;63802;53.232;6.570;2024-02-21T12:07:57;101249.28;;;9.30;100.00
75221;BME280;63802;53.232;6.570;2024-02-21T12:10:24;101239.53;;;9.29;100.00
75221;BME280;63802;53.232;6.570;2024-02-21T12:12:51;101240.22;;;9.26;100.00
75221;BME280;63802;53.232;6.570;2024-02-21T12:15:18;101229.06;;;9.31;100.00
75221;BME280;63802;53.232;6.570;2024-02-21T12:17:43;101230.47;;;9.25;100.00
75221;BME280;63802;53.232;6.570;2024-02-21T12:20:09;101228.78;;;9.21;100.00
75221;BME280;63802;53.232;6.570;2024-02-21T12:22:42;101221.06;;;9.23;100.00
75221;BME280;63802;53.232;6.570;2024-02-21T12:25:18;101210.50;;;9.21;100.00
75221;BME280;63802;53.232;6.570;2024-02-21T12:27:45;101207.75;;;9.21;100.00
75221;BME280;63802;53.232;6.570;2024-02-21T12:30:10;101201.41;;;9.29;100.00
75221;BME280;63802;53.232;6.570;2024-02-21T12:32:36;101202.56;;;9.28;100.00
75221;BME280;63802;53.232;6.570;2024-02-21T12:35:02;101186.69;;;9.18;100.00
75221;BME280;63802;53.232;6.570;2024-02-21T12:37:29;101164.19;;;9.21;100.00
75221;BME280;63802;53.232;6.570;2024-02-21T12:39:54;101168.03;;;9.32;100.00
75221;BME280;63802;53.232;6.570;2024-02-21T12:42:20;101159.63;;;9.37;100.00
75221;BME280;63802;53.232;6.570;2024-02-21T12:44:45;101160.63;;;9.45;100.00
75221;BME280;63802;53.232;6.570;2024-02-21T12:47:11;101173.69;;;9.39;100.00
75221;BME280;63802;53.232;6.570;2024-02-21T12:49:37;101162.16;;;9.30;100.00
75221;BME280;63802;53.232;6.570;2024-02-21T12:52:03;101163.72;;;9.31;100.00